UKDE/OZH METAR and TAF weather

Enter ICAO airport designator
Station Type Date Time Source
UKDE METAR 2019/10/21 04:00 UTC NOAA

UKDE 210400Z 35002MPS 0100 FG VV001 10/10 Q1025 R02R/////// NOSIG


Station Type Date Time Source
UKDE Decoded METAR 2019/10/21 04:00 UTC NOAA

Zaporizhzhia / Mokraya, Ukraine (UKDE) 47-52-02N 035-18-59E
Oct 21, 2019 - 12:00 AM EDT / 2019.10.21 0400 UTC
Wind: from the N (350 degrees) at 4 MPH (4 KT):0
Visibility: less than 1 mile:0
Sky conditions: obscured
Weather: fog
Temperature: 50 F (10 C)
Dew Point: 50 F (10 C)
Relative Humidity: 100%
Pressure (altimeter): 30.27 in. Hg (1025 hPa)
ob: UKDE 210400Z 35002MPS 0100 FG VV001 10/10 Q1025 R02R/////// NOSIG
cycle: 4

Station Type Date Time Source
UKDE TAF 2019/07/25 03:27 UTC NOAA

TAF
AMD TAF
AMD UKDE 250323Z 2503/2515 32003MPS 9999 SCT030 TX28/2512Z TN17/2503Z
TEMPO 2503/2505 1000 BR SCT010 PROB40
TEMPO 2510/2512 VRB10G15MPS 1000 TSRA SQ BKN020CB

Example: see airport list